Météo Nord-Pas-de-Calais   La météo au plus près de chez vous

Station météorologique

Observations météo à Avord (18092)

18092001 175 m Dernier relevé à 21:00
23.4°C
Humidité 35 % Vent 16.9 km/h 1017.5 hPa

Journée consultée

Vendredi 4 Septembre 2026

Synthèse de la journée

Périodes de référence en UTC

Température maximale

32.8°C

à 16:00

06h 06h

Température minimale

16.4°C

à 07:30

18h 18h

Rafale maximale

48 km/h

à 17:00

00h 00h

Précipitations

0 mm

Cumul quotidien

06h 06h

Graphiques de la journée

Heure locale Réduire

Données détaillées

Relevés météo

Pas de 6 minutes Afficher les relevés infra-horaires
Relevés météo détaillés à Avord pour le Vendredi 4 Septembre 2026
Heure Température °C Point de rosée °C Humidité % Vent moyen (raf.), km/h Précipitations mm Température à 10 cm °C Température à 20 cm °C Température à 50 cm °C Température à 100 cm °C Visibilité m Pression hPa
21:00 23.4 °C 9.4 °C 41 % 10 km/h (12 km/h) 0 mm0 mm 24.1 °C 23.1 °C 21.7 °C 21.2 °C 60000 m 1018.6 hPa
20:54 23.9 °C 9.1 °C 39 % 10 km/h (12 km/h) 0 mm0 mm 24.1 °C 23.1 °C 21.7 °C 21.1 °C 60000 m 1018.5 hPa
20:48 24.3 °C 9.1 °C 38 % 10 km/h (13 km/h) 0 mm0 mm 24.1 °C 23.1 °C 21.7 °C 21.2 °C 60000 m 1018.4 hPa
20:42 25.1 °C 9 °C 36 % 12 km/h (15 km/h) 0 mm0 mm 24.1 °C 23 °C 21.7 °C 21.1 °C 60000 m 1018.2 hPa
20:36 26.4 °C 8.8 °C 33 % 13 km/h (16 km/h) 0 mm0 mm 24.1 °C 23 °C 21.7 °C 21.1 °C 60000 m 1018 hPa
20:30 26.8 °C 8.7 °C 32 % 15 km/h (21 km/h) 0 mm0 mm 24.1 °C 23 °C 21.7 °C 21.1 °C 60000 m 1017.9 hPa
20:24 27 °C 8.4 °C 31 % 17 km/h (22 km/h) 0 mm0 mm 24.2 °C 23 °C 21.7 °C 21.1 °C 60000 m 1017.8 hPa
20:18 27 °C 9.4 °C 33 % 16 km/h (21 km/h) 0 mm0 mm 24.1 °C 23 °C 21.7 °C 21.1 °C 60000 m 1017.8 hPa
20:12 27.3 °C 10.9 °C 36 % 16 km/h (23 km/h) 0 mm0 mm 24.2 °C 23 °C 21.7 °C 21.2 °C 60000 m 1017.6 hPa
20:06 27.8 °C 10.9 °C 35 % 17 km/h (23 km/h) 0 mm0 mm 24.1 °C 23 °C 21.7 °C 21.1 °C 56530 m 1017.6 hPa
20:00 28.1 °C 11.2 °C 35 % 17 km/h (23 km/h) 0 mm0 mm 24.1 °C 23 °C 21.7 °C 21.1 °C 53960 m 1017.5 hPa
19:54 28.4 °C 11.5 °C 35 % 16 km/h (23 km/h) 0 mm0 mm 24.1 °C 23 °C 21.7 °C 21.1 °C 38640 m 1017.4 hPa
19:48 28.7 °C 11.3 °C 34 % 16 km/h (23 km/h) 0 mm0 mm 24.1 °C 23 °C 21.7 °C 21.1 °C 31990 m 1017.4 hPa
19:42 28.9 °C 11 °C 33 % 17 km/h (23 km/h) 0 mm0 mm 24.2 °C 22.9 °C 21.7 °C 21.1 °C 31260 m 1017.3 hPa
19:36 29.1 °C 10.7 °C 32 % 18 km/h (25 km/h) 0 mm0 mm 24.2 °C 22.9 °C 21.7 °C 21.1 °C 37220 m 1017.3 hPa
19:30 29.3 °C 10.4 °C 31 % 20 km/h (25 km/h) 0 mm0 mm 24.2 °C 22.9 °C 21.7 °C 21.2 °C 46410 m 1017.3 hPa
19:24 29.5 °C 10.1 °C 30 % 21 km/h (28 km/h) 0 mm0 mm 24.1 °C 22.9 °C 21.7 °C 21.1 °C 42450 m 1017.2 hPa
19:18 29.6 °C 9.7 °C 29 % 22 km/h (33 km/h) 0 mm0 mm 24.2 °C 22.9 °C 21.7 °C 21.1 °C 36080 m 1017.2 hPa
19:12 29.9 °C 9.4 °C 28 % 21 km/h (30 km/h) 0 mm0 mm 24.1 °C 22.9 °C 21.7 °C 21.1 °C 35430 m 1017.2 hPa
19:06 30 °C 9.5 °C 28 % 22 km/h (32 km/h) 0 mm0 mm 24.1 °C 22.9 °C 21.7 °C 21.1 °C 29460 m 1017.1 hPa
19:00 30.1 °C 9.6 °C 28 % 24 km/h (36 km/h) 0 mm0 mm 24.1 °C 22.8 °C 21.7 °C 21.1 °C 26980 m 1017 hPa
18:54 30.2 °C 9.1 °C 27 % 24 km/h (39 km/h) 0 mm0 mm 24.1 °C 22.8 °C 21.7 °C 21.1 °C 27530 m 1017 hPa
18:48 30.4 °C 9.8 °C 28 % 23 km/h (32 km/h) 0 mm0 mm 24.1 °C 22.8 °C 21.7 °C 21.1 °C 26090 m 1017 hPa
18:42 30.6 °C 10 °C 28 % 26 km/h (35 km/h) 0 mm0 mm 24.1 °C 22.8 °C 21.7 °C 21.1 °C 25490 m 1017 hPa
18:36 30.7 °C 9.6 °C 27 % 26 km/h (35 km/h) 0 mm0 mm 24.1 °C 22.8 °C 21.7 °C 21.1 °C 25520 m 1017.1 hPa
18:30 30.9 °C 9.2 °C 26 % 25 km/h (36 km/h) 0 mm0 mm 24 °C 22.8 °C 21.7 °C 21.1 °C 24550 m 1017 hPa
18:24 31.1 °C 9.3 °C 26 % 26 km/h (36 km/h) 0 mm0 mm 24.1 °C 22.7 °C 21.7 °C 21.1 °C 21920 m 1017 hPa
18:18 31.4 °C 8.4 °C 24 % 28 km/h (37 km/h) 0 mm0 mm 24 °C 22.7 °C 21.7 °C 21.1 °C 20860 m 1016.9 hPa
18:12 31.6 °C 8.6 °C 24 % 28 km/h (41 km/h) 0 mm0 mm 24 °C 22.7 °C 21.7 °C 21.1 °C 20790 m 1016.8 hPa
18:06 31.7 °C 8.6 °C 24 % 27 km/h (42 km/h) 0 mm0 mm 24 °C 22.7 °C 21.7 °C 21.2 °C 20530 m 1016.8 hPa
18:00 31.6 °C 7.9 °C 23 % 31 km/h (42 km/h) 0 mm0 mm 24 °C 22.7 °C 21.7 °C 21.1 °C 19820 m 1016.9 hPa
17:54 32.2 °C 8.4 °C 23 % 30 km/h (44 km/h) 0 mm0 mm 24 °C 22.7 °C 21.7 °C 21.1 °C 20430 m 1016.8 hPa
17:48 31.9 °C 8.2 °C 23 % 27 km/h (44 km/h) 0 mm0 mm 23.9 °C 22.6 °C 21.7 °C 21.1 °C 21120 m 1016.8 hPa
17:42 31.9 °C 8.2 °C 23 % 28 km/h (37 km/h) 0 mm0 mm 23.9 °C 22.6 °C 21.7 °C 21.1 °C 21560 m 1016.8 hPa
17:36 32 °C 8.3 °C 23 % 33 km/h (46 km/h) 0 mm0 mm 23.9 °C 22.6 °C 21.7 °C 21.1 °C 21940 m 1016.8 hPa
17:30 32.1 °C 9 °C 24 % 32 km/h (46 km/h) 0 mm0 mm 23.9 °C 22.6 °C 21.7 °C 21.1 °C 22150 m 1016.8 hPa
17:24 32 °C 8.3 °C 23 % 30 km/h (43 km/h) 0 mm0 mm 23.9 °C 22.6 °C 21.7 °C 21.1 °C 22170 m 1016.7 hPa
17:18 32.3 °C 9.2 °C 24 % 29 km/h (42 km/h) 0 mm0 mm 23.8 °C 22.5 °C 21.7 °C 21.2 °C 22270 m 1016.7 hPa
17:12 32.2 °C 8.4 °C 23 % 29 km/h (37 km/h) 0 mm0 mm 23.8 °C 22.5 °C 21.7 °C 21.2 °C 22570 m 1016.7 hPa
17:06 32.2 °C 7.8 °C 22 % 28 km/h (48 km/h) 0 mm0 mm 23.7 °C 22.5 °C 21.7 °C 21.1 °C 22940 m 1016.7 hPa
17:00 32.3 °C 9.2 °C 24 % 26 km/h (48 km/h) 0 mm0 mm 23.8 °C 22.5 °C 21.7 °C 21.2 °C 23300 m 1016.7 hPa
16:54 31.9 °C 8.8 °C 24 % 28 km/h (39 km/h) 0 mm0 mm 23.7 °C 22.5 °C 21.7 °C 21.2 °C 23790 m 1016.7 hPa
16:48 31.9 °C 8.2 °C 23 % 31 km/h (39 km/h) 0 mm0 mm 23.6 °C 22.4 °C 21.7 °C 21.1 °C 24460 m 1016.7 hPa
16:42 32.4 °C 9.2 °C 24 % 28 km/h (39 km/h) 0 mm0 mm 23.6 °C 22.4 °C 21.7 °C 21.1 °C 24310 m 1016.7 hPa
16:36 32.2 °C 9.1 °C 24 % 28 km/h (39 km/h) 0 mm0 mm 23.6 °C 22.4 °C 21.7 °C 21.1 °C 23330 m 1016.8 hPa
16:30 32.4 °C 7.9 °C 22 % 29 km/h (39 km/h) 0 mm0 mm 23.6 °C 22.4 °C 21.7 °C 21.1 °C 23690 m 1016.7 hPa
16:24 32.5 °C 9.3 °C 24 % 28 km/h (40 km/h) 0 mm0 mm 23.5 °C 22.3 °C 21.7 °C 21.1 °C 24320 m 1016.7 hPa
16:18 32.1 °C 7 °C 21 % 27 km/h (40 km/h) 0 mm0 mm 23.5 °C 22.3 °C 21.7 °C 21.1 °C 24790 m 1016.8 hPa
16:12 32.5 °C 8.7 °C 23 % 30 km/h (41 km/h) 0 mm0 mm 23.5 °C 22.3 °C 21.7 °C 21.1 °C 25540 m 1016.9 hPa
16:06 32.3 °C 8.5 °C 23 % 30 km/h (40 km/h) 0 mm0 mm 23.4 °C 22.3 °C 21.7 °C 21.1 °C 26130 m 1016.9 hPa
16:00 32.2 °C 9.7 °C 25 % 30 km/h (39 km/h) 0 mm0 mm 23.4 °C 22.2 °C 21.7 °C 21.1 °C 26550 m 1016.9 hPa
15:54 32.3 °C 9.8 °C 25 % 28 km/h (37 km/h) 0 mm0 mm 23.4 °C 22.2 °C 21.7 °C 21.1 °C 26930 m 1016.9 hPa
15:48 32.2 °C 10.3 °C 26 % 25 km/h (36 km/h) 0 mm0 mm 23.3 °C 22.2 °C 21.7 °C 21.1 °C 27380 m 1016.9 hPa
15:42 32.2 °C 10.3 °C 26 % 24 km/h (35 km/h) 0 mm0 mm 23.3 °C 22.1 °C 21.7 °C 21.1 °C 27980 m 1016.9 hPa
15:36 32 °C 10.1 °C 26 % 24 km/h (34 km/h) 0 mm0 mm 23.2 °C 22.1 °C 21.7 °C 21.2 °C 28830 m 1017 hPa
15:30 32 °C 10.1 °C 26 % 24 km/h (33 km/h) 0 mm0 mm 23.2 °C 22.1 °C 21.7 °C 21.1 °C 29560 m 1017.1 hPa
15:24 31.9 °C 10 °C 26 % 25 km/h (36 km/h) 0 mm0 mm 23.1 °C 22.1 °C 21.7 °C 21.1 °C 29890 m 1017.1 hPa
15:18 31.9 °C 9.4 °C 25 % 28 km/h (39 km/h) 0 mm0 mm 23.1 °C 22.1 °C 21.7 °C 21.1 °C 30330 m 1017.2 hPa
15:12 32.2 °C 9.7 °C 25 % 27 km/h (39 km/h) 0 mm0 mm 23.1 °C 22 °C 21.7 °C 21.1 °C 31460 m 1017.2 hPa
15:06 32.3 °C 10.9 °C 27 % 23 km/h (38 km/h) 0 mm0 mm 23 °C 22 °C 21.7 °C 21.1 °C 32210 m 1017.3 hPa
15:00 31.8 °C 9.9 °C 26 % 24 km/h (36 km/h) 0 mm0 mm 23 °C 22 °C 21.7 °C 21.1 °C 32740 m 1017.4 hPa
14:54 31.7 °C 11 °C 28 % 23 km/h (34 km/h) 0 mm0 mm 23 °C 22 °C 21.7 °C 21.1 °C 33870 m 1017.4 hPa
14:48 31.7 °C 9.8 °C 26 % 22 km/h (35 km/h) 0 mm0 mm 22.9 °C 21.9 °C 21.7 °C 21.1 °C 35080 m 1017.5 hPa
14:42 31.6 °C 10.3 °C 27 % 21 km/h (29 km/h) 0 mm0 mm 22.9 °C 21.9 °C 21.7 °C 21.1 °C 35890 m 1017.6 hPa
14:36 31.3 °C 10.1 °C 27 % 20 km/h (31 km/h) 0 mm0 mm 22.8 °C 21.9 °C 21.7 °C 21.1 °C 36820 m 1017.6 hPa
14:30 31.1 °C 11 °C 29 % 20 km/h (31 km/h) 0 mm0 mm 22.7 °C 21.9 °C 21.7 °C 21.2 °C 38080 m 1017.7 hPa
14:24 31 °C 10.9 °C 29 % 17 km/h (26 km/h) 0 mm0 mm 22.7 °C 21.8 °C 21.7 °C 21.1 °C 38870 m 1017.7 hPa
14:18 30.8 °C 10.7 °C 29 % 17 km/h (28 km/h) 0 mm0 mm 22.7 °C 21.8 °C 21.7 °C 21.1 °C 39390 m 1017.7 hPa
14:12 31.1 °C 12.9 °C 33 % 18 km/h (29 km/h) 0 mm0 mm 22.6 °C 21.8 °C 21.7 °C 21.1 °C 40110 m 1017.8 hPa
14:06 31 °C 11.4 °C 30 % 19 km/h (29 km/h) 0 mm0 mm 22.6 °C 21.8 °C 21.7 °C 21.1 °C 41520 m 1017.9 hPa
14:00 30.1 °C 10.1 °C 29 % 18 km/h (28 km/h) 0 mm0 mm 22.5 °C 21.8 °C 21.7 °C 21.1 °C 43450 m 1018 hPa
13:54 30.5 °C 9.9 °C 28 % 20 km/h (30 km/h) 0 mm0 mm 22.5 °C 21.8 °C 21.7 °C 21.1 °C 44900 m 1017.9 hPa
13:48 30.3 °C 11.3 °C 31 % 17 km/h (30 km/h) 0 mm0 mm 22.4 °C 21.7 °C 21.7 °C 21.1 °C 46350 m 1018 hPa
13:42 30.4 °C 12.3 °C 33 % 19 km/h (30 km/h) 0 mm0 mm 22.4 °C 21.7 °C 21.7 °C 21.2 °C 47830 m 1018 hPa
13:36 29.8 °C 12.7 °C 35 % 19 km/h (32 km/h) 0 mm0 mm 22.4 °C 21.7 °C 21.7 °C 21.1 °C 48930 m 1018.2 hPa
13:30 30.1 °C 12.1 °C 33 % 22 km/h (32 km/h) 0 mm0 mm 22.3 °C 21.7 °C 21.7 °C 21.1 °C 49820 m 1018.2 hPa
13:24 29.7 °C 13 °C 36 % 20 km/h (30 km/h) 0 mm0 mm 22.3 °C 21.7 °C 21.7 °C 21.1 °C 50990 m 1018.3 hPa
13:18 29.2 °C 12.6 °C 36 % 18 km/h (26 km/h) 0 mm0 mm 22.3 °C 21.6 °C 21.7 °C 21.1 °C 52110 m 1018.3 hPa
13:12 28.9 °C 12.7 °C 37 % 17 km/h (24 km/h) 0 mm0 mm 22.2 °C 21.6 °C 21.7 °C 21.1 °C 19970 m 1018.3 hPa
13:06 29.3 °C 12.7 °C 36 % 17 km/h (30 km/h) 0 mm0 mm 22.2 °C 21.6 °C 21.7 °C 21.1 °C 19970 m 1018.4 hPa
13:00 29.2 °C 14.2 °C 40 % 15 km/h (25 km/h) 0 mm0 mm 22.1 °C 21.6 °C 21.7 °C 21.1 °C 56590 m 1018.3 hPa
12:54 28.9 °C 13.9 °C 40 % 11 km/h (25 km/h) 0 mm0 mm 22.1 °C 21.6 °C 21.7 °C 21.1 °C 58380 m 1018.3 hPa
12:48 28.5 °C 14 °C 41 % 10 km/h (18 km/h) 0 mm0 mm 22 °C 21.6 °C 21.7 °C 21.1 °C 59970 m 1018.4 hPa
12:42 28.3 °C 13.8 °C 41 % 12 km/h (18 km/h) 0 mm0 mm 22 °C 21.6 °C 21.7 °C 21.2 °C 60000 m 1018.5 hPa
12:36 28.1 °C 14 °C 42 % 12 km/h (24 km/h) 0 mm0 mm 22 °C 21.6 °C 21.8 °C 21.2 °C 60000 m 1018.5 hPa
12:30 28.4 °C 15 °C 44 % 13 km/h (24 km/h) 0 mm0 mm 21.9 °C 21.6 °C 21.7 °C 21.1 °C 60000 m 1018.5 hPa
12:24 27.7 °C 15 °C 46 % 13 km/h (22 km/h) 0 mm0 mm 21.8 °C 21.6 °C 21.7 °C 21.1 °C 60000 m 1018.7 hPa
12:18 27.5 °C 14.8 °C 46 % 14 km/h (23 km/h) 0 mm0 mm 21.9 °C 21.6 °C 21.8 °C 21.1 °C 60000 m 1018.9 hPa
12:12 27.4 °C 14.4 °C 45 % 15 km/h (24 km/h) 0 mm0 mm 21.8 °C 21.6 °C 21.7 °C 21.2 °C 60000 m 1019 hPa
12:06 27.5 °C 14.5 °C 45 % 11 km/h (24 km/h) 0 mm0 mm 21.7 °C 21.6 °C 21.7 °C 21.1 °C 60000 m 1019 hPa
12:00 27.1 °C 15.5 °C 49 % 8 km/h (14 km/h) 0 mm0 mm 21.7 °C 21.6 °C 21.7 °C 21.2 °C 60000 m 1019.1 hPa
11:54 26.9 °C 15.3 °C 49 % 6 km/h (14 km/h) 0 mm0 mm 21.7 °C 21.6 °C 21.7 °C 21.2 °C 60000 m 1019.1 hPa
11:48 26.5 °C 15.5 °C 51 % 6 km/h (12 km/h) 0 mm0 mm 21.7 °C 21.6 °C 21.7 °C 21.1 °C 60000 m 1019.3 hPa
11:42 26.1 °C 15.5 °C 52 % 9 km/h (13 km/h) 0 mm0 mm 21.6 °C 21.6 °C 21.7 °C 21.2 °C 60000 m 1019.3 hPa
11:36 26.1 °C 15.5 °C 52 % 9 km/h (15 km/h) 0 mm0 mm 21.6 °C 21.6 °C 21.7 °C 21.1 °C 60000 m 1019.4 hPa
11:30 25.9 °C 15.3 °C 52 % 10 km/h (16 km/h) 0 mm0 mm 21.6 °C 21.6 °C 21.7 °C 21.1 °C 60000 m 1019.5 hPa
11:24 25.7 °C 15.4 °C 53 % 10 km/h (16 km/h) 0 mm0 mm 21.6 °C 21.6 °C 21.7 °C 21.1 °C 60000 m 1019.6 hPa
11:18 25.5 °C 15.2 °C 53 % 10 km/h (15 km/h) 0 mm0 mm 21.5 °C 21.6 °C 21.7 °C 21.1 °C 60000 m 1019.6 hPa
11:12 25.3 °C 15.3 °C 54 % 10 km/h (15 km/h) 0 mm0 mm 21.5 °C 21.6 °C 21.7 °C 21.1 °C 60000 m 1019.6 hPa
11:06 25 °C 15.3 °C 55 % 9 km/h (15 km/h) 0 mm0 mm 21.5 °C 21.6 °C 21.7 °C 21.1 °C 60000 m 1019.6 hPa
11:00 24.9 °C 15.2 °C 55 % 8 km/h (12 km/h) 0 mm0 mm 21.5 °C 21.6 °C 21.7 °C 21.2 °C 60000 m 1019.6 hPa
10:54 24.7 °C 15.6 °C 57 % 8 km/h (13 km/h) 0 mm0 mm 21.4 °C 21.6 °C 21.7 °C 21.1 °C 60000 m 1019.6 hPa
10:48 24.3 °C 15.5 °C 58 % 8 km/h (13 km/h) 0 mm0 mm 21.4 °C 21.6 °C 21.7 °C 21.2 °C 60000 m 1019.6 hPa
10:42 24.1 °C 15.3 °C 58 % 9 km/h (14 km/h) 0 mm0 mm 21.4 °C 21.6 °C 21.7 °C 21.2 °C 60000 m 1019.6 hPa
10:36 24 °C 15.2 °C 58 % 10 km/h (14 km/h) 0 mm0 mm 21.4 °C 21.6 °C 21.7 °C 21.1 °C 60000 m 1019.7 hPa
10:30 23.8 °C 14.5 °C 56 % 11 km/h (17 km/h) 0 mm0 mm 21.4 °C 21.6 °C 21.7 °C 21.1 °C 54790 m 1019.7 hPa
10:24 23.9 °C 15.7 °C 60 % 8 km/h (15 km/h) 0 mm0 mm 21.4 °C 21.7 °C 21.7 °C 21.2 °C 46290 m 1019.7 hPa
10:18 23.7 °C 15.5 °C 60 % 7 km/h (10 km/h) 0 mm0 mm 21.3 °C 21.7 °C 21.7 °C 21.2 °C 47930 m 1019.6 hPa
10:12 23.4 °C 14.9 °C 59 % 6 km/h (10 km/h) 0 mm0 mm 21.3 °C 21.7 °C 21.7 °C 21.2 °C 59330 m 1019.6 hPa
10:06 23.4 °C 14.9 °C 59 % 5 km/h (9 km/h) 0 mm0 mm 21.3 °C 21.7 °C 21.7 °C 21.2 °C 59330 m 1019.6 hPa
10:00 23.4 °C 15.4 °C 61 % 4 km/h (8 km/h) 0 mm0 mm 21.3 °C 21.7 °C 21.7 °C 21.2 °C 60000 m 1019.5 hPa
09:54 23 °C 14.8 °C 60 % 4 km/h (6 km/h) 0 mm0 mm 21.3 °C 21.7 °C 21.7 °C 21.1 °C 60000 m 1019.6 hPa
09:48 22.7 °C 15 °C 62 % 4 km/h (6 km/h) 0 mm0 mm 21.3 °C 21.7 °C 21.7 °C 21.1 °C 60000 m 1019.6 hPa
09:42 22.4 °C 14.8 °C 62 % 4 km/h (6 km/h) 0 mm0 mm 21.3 °C 21.7 °C 21.7 °C 21.1 °C 59480 m 1019.8 hPa
09:36 22.3 °C 15.2 °C 64 % 3 km/h (6 km/h) 0 mm0 mm 21.3 °C 21.7 °C 21.7 °C 21.2 °C 58830 m 1019.8 hPa
09:30 21.9 °C 15 °C 65 % 3 km/h (5 km/h) 0 mm0 mm 21.2 °C 21.7 °C 21.7 °C 21.2 °C 58830 m 1019.8 hPa
09:24 21.5 °C 14.6 °C 65 % 4 km/h (8 km/h) 0 mm0 mm 21.2 °C 21.7 °C 21.7 °C 21.1 °C 59820 m 1019.8 hPa
09:18 21.2 °C 15.1 °C 68 % 5 km/h (8 km/h) 0 mm0 mm 21.2 °C 21.7 °C 21.7 °C 21.2 °C 58690 m 1019.9 hPa
09:12 20.8 °C 14.9 °C 69 % 5 km/h (7 km/h) 0 mm0 mm 21.2 °C 21.8 °C 21.7 °C 21.2 °C 58690 m 1020 hPa
09:06 20.8 °C 14.4 °C 67 % 4 km/h (8 km/h) 0 mm0 mm 21.3 °C 21.8 °C 21.7 °C 21.2 °C 57780 m 1020 hPa
09:00 20.7 °C 14.8 °C 69 % 4 km/h (8 km/h) 0 mm0 mm 21.3 °C 21.8 °C 21.7 °C 21.2 °C 57780 m 1019.9 hPa
08:54 20 °C 14.8 °C 72 % 4 km/h (8 km/h) 0 mm0 mm 21.3 °C 21.8 °C 21.7 °C 21.1 °C 60000 m 1019.9 hPa
08:48 19.8 °C 14.2 °C 70 % 5 km/h (8 km/h) 0 mm0 mm 21.3 °C 21.8 °C 21.7 °C 21.2 °C 59730 m 1020 hPa
08:42 19.6 °C 13.8 °C 69 % 4 km/h (6 km/h) 0 mm0 mm 21.3 °C 21.8 °C 21.7 °C 21.1 °C 60000 m 1019.9 hPa
08:36 19.5 °C 14.5 °C 73 % 3 km/h (5 km/h) 0 mm0 mm 21.3 °C 21.8 °C 21.7 °C 21.2 °C 60000 m 1019.9 hPa
08:30 19.2 °C 15.7 °C 80 % 3 km/h (5 km/h) 0 mm0 mm 21.3 °C 21.8 °C 21.7 °C 21.1 °C 60000 m 1019.9 hPa
08:24 18.7 °C 15 °C 79 % 3 km/h (5 km/h) 0 mm0 mm 21.3 °C 21.9 °C 21.7 °C 21.2 °C 60000 m 1019.9 hPa
08:18 18.4 °C 15.3 °C 82 % 2 km/h (4 km/h) 0 mm0 mm 21.3 °C 21.9 °C 21.7 °C 21.2 °C 60000 m 1019.9 hPa
08:12 18 °C 14.7 °C 81 % 3 km/h (3 km/h) 0 mm0 mm 21.3 °C 21.9 °C 21.7 °C 21.1 °C 60000 m 1020 hPa
08:06 18 °C 14.9 °C 82 % 3 km/h (4 km/h) 0 mm0 mm 21.3 °C 21.9 °C 21.7 °C 21.2 °C 60000 m 1019.9 hPa
08:00 18 °C 14.7 °C 81 % 3 km/h (4 km/h) 0 mm0 mm 21.4 °C 21.9 °C 21.7 °C 21.1 °C 60000 m 1020 hPa
07:54 17.7 °C 14.8 °C 83 % 3 km/h (3 km/h) 0 mm0 mm 21.4 °C 21.9 °C 21.7 °C 21.1 °C 60000 m 1020 hPa
07:48 17.4 °C 14.7 °C 84 % 3 km/h (3 km/h) 0 mm0 mm 21.4 °C 21.9 °C 21.7 °C 21.1 °C 57580 m 1020 hPa
07:42 17 °C 14.3 °C 84 % 2 km/h (3 km/h) 0 mm0 mm 21.4 °C 21.9 °C 21.7 °C 21.2 °C 60000 m 1020.1 hPa
07:36 16.7 °C 14.2 °C 85 % 3 km/h (4 km/h) 0 mm0 mm 21.4 °C 21.9 °C 21.7 °C 21.2 °C 60000 m 1020.1 hPa
07:30 16.4 °C 13.9 °C 85 % 3 km/h (4 km/h) 0 mm0 mm 21.5 °C 21.9 °C 21.7 °C 21.1 °C 55860 m 1020 hPa
07:24 16.5 °C 13.8 °C 84 % 2 km/h (4 km/h) 0 mm0 mm 21.5 °C 21.9 °C 21.7 °C 21.2 °C 55860 m 1020 hPa
07:18 16.6 °C 13.9 °C 84 % 0 km/h (2 km/h) 0 mm0 mm 21.5 °C 21.9 °C 21.6 °C 21.1 °C 60000 m 1020 hPa
07:12 16.7 °C 14 °C 84 % 3 km/h (4 km/h) 0 mm0 mm 21.5 °C 22 °C 21.7 °C 21.2 °C 60000 m 1020.1 hPa
07:06 16.8 °C 13.9 °C 83 % 3 km/h (4 km/h) 0 mm0 mm 21.5 °C 22 °C 21.7 °C 21.2 °C 60000 m 1020 hPa
07:00 16.8 °C 14.1 °C 84 % 3 km/h (4 km/h) 0 mm0 mm 21.6 °C 22 °C 21.7 °C 21.2 °C 60000 m 1020 hPa
06:54 16.8 °C 14.1 °C 84 % 3 km/h (4 km/h) 0 mm0 mm 21.6 °C 22 °C 21.7 °C 21.1 °C 60000 m 1020.1 hPa
06:48 16.8 °C 14.1 °C 84 % 3 km/h (4 km/h) 0 mm0 mm 21.6 °C 22.1 °C 21.7 °C 21.2 °C 60000 m 1020 hPa
06:42 16.6 °C 13.9 °C 84 % 2 km/h (4 km/h) 0 mm0 mm 21.6 °C 22 °C 21.6 °C 21.1 °C 60000 m 1020 hPa
06:36 16.5 °C 13.8 °C 84 % 0 km/h (3 km/h) 0 mm0 mm 21.6 °C 22.1 °C 21.7 °C 21.2 °C 60000 m 1020.1 hPa
06:30 16.7 °C 13.8 °C 83 % 3 km/h (4 km/h) 0 mm0 mm 21.6 °C 22 °C 21.7 °C 21.2 °C 60000 m 1020.1 hPa
06:24 16.9 °C 14 °C 83 % 3 km/h (4 km/h) 0 mm0 mm 21.7 °C 22.1 °C 21.7 °C 21.2 °C 60000 m 1020.1 hPa
06:18 16.8 °C 14.1 °C 84 % 3 km/h (4 km/h) 0 mm0 mm 21.7 °C 22.1 °C 21.7 °C 21.2 °C 10420 m 1020.1 hPa
06:12 16.6 °C 14.1 °C 85 % 3 km/h (4 km/h) 0 mm0 mm 21.7 °C 22.1 °C 21.7 °C 21.1 °C 15710 m 1020.1 hPa
06:06 16.6 °C 13.9 °C 84 % 3 km/h (4 km/h) 0 mm0 mm 21.7 °C 22.1 °C 21.6 °C 21.1 °C 60000 m 1020.2 hPa
06:00 16.8 °C 14.1 °C 84 % 3 km/h (4 km/h) 0 mm0 mm 21.7 °C 22.1 °C 21.6 °C 21.2 °C 60000 m 1020.3 hPa
05:54 17 °C 13.9 °C 82 % 4 km/h (4 km/h) 0 mm0 mm 21.7 °C 22.1 °C 21.6 °C 21.2 °C 60000 m 1020.3 hPa
05:48 17.3 °C 14 °C 81 % 3 km/h (4 km/h) 0 mm0 mm 21.8 °C 22.1 °C 21.6 °C 21.2 °C 19490 m 1020.2 hPa
05:42 17.5 °C 14 °C 80 % 3 km/h (3 km/h) 0 mm0 mm 21.8 °C 22.2 °C 21.7 °C 21.2 °C 19490 m 1020.3 hPa
05:36 17.4 °C 14.1 °C 81 % 3 km/h (3 km/h) 0 mm0 mm 21.8 °C 22.1 °C 21.6 °C 21.2 °C 60000 m 1020.3 hPa
05:30 17.3 °C 14.2 °C 82 % 3 km/h (3 km/h) 0 mm0 mm 21.8 °C 22.2 °C 21.6 °C 21.2 °C 60000 m 1020.4 hPa
05:24 16.9 °C 14 °C 83 % 2 km/h (3 km/h) 0 mm0 mm 21.9 °C 22.2 °C 21.6 °C 21.2 °C 60000 m 1020.5 hPa
05:18 17 °C 13.9 °C 82 % 2 km/h (3 km/h) 0 mm0 mm 21.9 °C 22.2 °C 21.6 °C 21.2 °C 60000 m 1020.6 hPa
05:12 17 °C 13.9 °C 82 % 2 km/h (3 km/h) 0 mm0 mm 21.9 °C 22.2 °C 21.7 °C 21.2 °C 60000 m 1020.7 hPa
05:06 17.2 °C 13.9 °C 81 % 2 km/h (4 km/h) 0 mm0 mm 21.9 °C 22.2 °C 21.6 °C 21.2 °C 60000 m 1020.7 hPa
05:00 17.5 °C 14 °C 80 % 2 km/h (3 km/h) 0 mm0 mm 21.9 °C 22.2 °C 21.6 °C 21.2 °C 60000 m 1020.6 hPa
04:54 17.5 °C 14 °C 80 % 2 km/h (3 km/h) 0 mm0 mm 21.9 °C 22.2 °C 21.6 °C 21.2 °C 60000 m 1020.7 hPa
04:48 17.6 °C 14.1 °C 80 % 3 km/h (4 km/h) 0 mm0 mm 22 °C 22.2 °C 21.6 °C 21.2 °C 60000 m 1020.7 hPa
04:42 17.8 °C 14.1 °C 79 % 3 km/h (4 km/h) 0 mm0 mm 22 °C 22.2 °C 21.6 °C 21.2 °C 60000 m 1020.7 hPa
04:36 18.2 °C 13.9 °C 76 % 2 km/h (4 km/h) 0 mm0 mm 22 °C 22.2 °C 21.6 °C 21.2 °C 60000 m 1020.8 hPa
04:30 18.4 °C 13.9 °C 75 % 4 km/h (7 km/h) 0 mm0 mm 22.1 °C 22.3 °C 21.6 °C 21.2 °C 60000 m 1020.8 hPa
04:24 18.3 °C 13.8 °C 75 % 6 km/h (9 km/h) 0 mm0 mm 22.1 °C 22.3 °C 21.6 °C 21.1 °C 60000 m 1020.9 hPa
04:18 18.4 °C 14.1 °C 76 % 7 km/h (10 km/h) 0 mm0 mm 22.1 °C 22.3 °C 21.6 °C 21.2 °C 60000 m 1020.9 hPa
04:12 18.3 °C 14 °C 76 % 7 km/h (10 km/h) 0 mm0 mm 22.1 °C 22.3 °C 21.6 °C 21.2 °C 60000 m 1020.9 hPa
04:06 18.1 °C 14.2 °C 78 % 6 km/h (8 km/h) 0 mm0 mm 22.1 °C 22.3 °C 21.6 °C 21.2 °C 60000 m 1020.9 hPa
04:00 17.8 °C 14.1 °C 79 % 5 km/h (7 km/h) 0 mm0 mm 22.1 °C 22.3 °C 21.6 °C 21.2 °C 60000 m 1020.9 hPa
03:54 17.4 °C 14.1 °C 81 % 5 km/h (7 km/h) 0 mm0 mm 22.2 °C 22.3 °C 21.6 °C 21.1 °C 60000 m 1021 hPa
03:48 17.4 °C 14.3 °C 82 % 6 km/h (7 km/h) 0 mm0 mm 22.2 °C 22.3 °C 21.6 °C 21.2 °C 60000 m 1021.1 hPa
03:42 17.4 °C 14.3 °C 82 % 6 km/h (7 km/h) 0 mm0 mm 22.2 °C 22.3 °C 21.6 °C 21.2 °C 60000 m 1021.3 hPa
03:36 17.4 °C 14.1 °C 81 % 6 km/h (6 km/h) 0 mm0 mm 22.2 °C 22.4 °C 21.6 °C 21.2 °C 60000 m 1021.3 hPa
03:30 17.4 °C 14.3 °C 82 % 6 km/h (6 km/h) 0 mm0 mm 22.3 °C 22.4 °C 21.6 °C 21.2 °C 60000 m 1021.4 hPa
03:24 17.4 °C 14.3 °C 82 % 5 km/h (6 km/h) 0 mm0 mm 22.3 °C 22.4 °C 21.6 °C 21.2 °C 60000 m 1021.5 hPa
03:18 17.4 °C 14.5 °C 83 % 4 km/h (5 km/h) 0 mm0 mm 22.3 °C 22.4 °C 21.6 °C 21.2 °C 60000 m 1021.6 hPa
03:12 17.1 °C 14.4 °C 84 % 3 km/h (4 km/h) 0 mm0 mm 22.3 °C 22.4 °C 21.6 °C 21.2 °C 60000 m 1021.6 hPa
03:06 16.9 °C 14.5 °C 86 % 2 km/h (4 km/h) 0 mm0 mm 22.3 °C 22.4 °C 21.6 °C 21.2 °C 60000 m 1021.7 hPa
03:00 16.9 °C 14.5 °C 86 % 4 km/h (6 km/h) 0 mm0 mm 22.3 °C 22.4 °C 21.6 °C 21.2 °C 60000 m 1021.7 hPa
02:54 17.2 °C 14.8 °C 86 % 5 km/h (7 km/h) 0 mm0 mm 22.4 °C 22.4 °C 21.6 °C 21.2 °C 60000 m 1021.7 hPa
02:48 17.3 °C 14.9 °C 86 % 5 km/h (6 km/h) 0 mm0 mm 22.4 °C 22.4 °C 21.6 °C 21.2 °C 60000 m 1021.8 hPa
02:42 17.3 °C 14.8 °C 85 % 5 km/h (6 km/h) 0 mm0 mm 22.4 °C 22.4 °C 21.6 °C 21.2 °C 60000 m 1021.8 hPa
02:36 17.5 °C 14.9 °C 85 % 4 km/h (5 km/h) 0 mm0 mm 22.4 °C 22.4 °C 21.5 °C 21.2 °C 60000 m 1021.7 hPa
02:30 17.7 °C 15.3 °C 86 % 3 km/h (4 km/h) 0 mm0 mm 22.4 °C 22.4 °C 21.6 °C 21.2 °C 60000 m 1021.8 hPa
02:24 17.6 °C 15.2 °C 86 % 2 km/h (3 km/h) 0 mm0 mm 22.5 °C 22.4 °C 21.5 °C 21.1 °C 60000 m 1021.9 hPa
02:18 17.5 °C 15.3 °C 87 % 3 km/h (4 km/h) 0 mm0 mm 22.5 °C 22.4 °C 21.6 °C 21.2 °C 60000 m 1022.1 hPa
02:12 17.6 °C 15.2 °C 86 % 4 km/h (4 km/h) 0 mm0 mm 22.5 °C 22.4 °C 21.5 °C 21.2 °C 60000 m 1022 hPa
02:06 17.6 °C 15.2 °C 86 % 4 km/h (5 km/h) 0 mm0 mm 22.5 °C 22.5 °C 21.6 °C 21.2 °C 60000 m 1022 hPa
02:00 17.8 °C 14.9 °C 83 % 3 km/h (5 km/h) 0 mm0 mm 22.5 °C 22.5 °C 21.6 °C 21.2 °C 60000 m 1022.1 hPa
01:54 18.1 °C 15.4 °C 84 % 4 km/h (5 km/h) 0 mm0 mm 22.5 °C 22.4 °C 21.5 °C 21.2 °C 60000 m 1022.1 hPa
01:48 18.3 °C 15.2 °C 82 % 4 km/h (5 km/h) 0 mm0 mm 22.6 °C 22.4 °C 21.5 °C 21.1 °C 60000 m 1022.2 hPa
01:42 18.4 °C 15.1 °C 81 % 4 km/h (5 km/h) 0 mm0 mm 22.6 °C 22.5 °C 21.5 °C 21.2 °C 60000 m 1022.2 hPa
01:36 18.5 °C 15.2 °C 81 % 3 km/h (4 km/h) 0 mm0 mm 22.6 °C 22.5 °C 21.5 °C 21.2 °C 60000 m 1022.2 hPa
01:30 18.7 °C 15.2 °C 80 % 2 km/h (2 km/h) 0 mm0 mm 22.6 °C 22.5 °C 21.5 °C 21.2 °C 60000 m 1022.2 hPa
01:24 18.8 °C 15.3 °C 80 % 2 km/h (2 km/h) 0 mm0 mm 22.7 °C 22.5 °C 21.5 °C 21.2 °C 60000 m 1022.2 hPa
01:18 18.9 °C 15.4 °C 80 % 2 km/h (3 km/h) 0 mm0 mm 22.7 °C 22.5 °C 21.5 °C 21.2 °C 60000 m 1022.2 hPa
01:12 19.1 °C 15.6 °C 80 % 2 km/h (3 km/h) 0 mm0 mm 22.7 °C 22.5 °C 21.5 °C 21.2 °C 60000 m 1022.1 hPa
01:06 19.1 °C 15.6 °C 80 % 2 km/h (3 km/h) 0 mm0 mm 22.7 °C 22.5 °C 21.5 °C 21.2 °C 60000 m 1022.2 hPa
01:00 19.1 °C 15.8 °C 81 % 0 km/h (3 km/h) 0 mm0 mm 22.7 °C 22.5 °C 21.5 °C 21.2 °C 60000 m 1022.2 hPa
00:54 19 °C 15.7 °C 81 % 0 km/h (0 km/h) 0 mm0 mm 22.7 °C 22.5 °C 21.5 °C 21.2 °C 60000 m 1022.2 hPa
00:48 18.9 °C 15.8 °C 82 % 0 km/h (0 km/h) 0 mm0 mm 22.8 °C 22.5 °C 21.5 °C 21.2 °C 60000 m 1022.4 hPa
00:42 18.9 °C 15.8 °C 82 % 0 km/h (2 km/h) 0 mm0 mm 22.8 °C 22.5 °C 21.5 °C 21.2 °C 60000 m 1022.4 hPa
00:36 18.8 °C 15.8 °C 83 % 0 km/h (2 km/h) 0 mm0 mm 22.8 °C 22.5 °C 21.5 °C 21.2 °C 60000 m 1022.4 hPa
00:30 18.8 °C 15.8 °C 83 % 0 km/h (0 km/h) 0 mm0 mm 22.8 °C 22.5 °C 21.5 °C 21.2 °C 60000 m 1022.4 hPa
00:24 18.9 °C 15.8 °C 82 % 0 km/h (3 km/h) 0 mm0 mm 22.9 °C 22.5 °C 21.5 °C 21.2 °C 60000 m 1022.4 hPa
00:18 18.7 °C 15.6 °C 82 % 2 km/h (4 km/h) 0 mm0 mm 22.9 °C 22.5 °C 21.5 °C 21.2 °C 60000 m 1022.4 hPa
00:12 18.6 °C 15.5 °C 82 % 3 km/h (4 km/h) 0 mm0 mm 22.9 °C 22.5 °C 21.5 °C 21.2 °C 60000 m 1022.4 hPa
00:06 18.7 °C 15 °C 79 % 3 km/h (4 km/h) 0 mm0 mm 22.9 °C 22.5 °C 21.5 °C 21.2 °C 60000 m 1022.4 hPa
00:00 19.1 °C 15.2 °C 78 % 2 km/h (4 km/h) 0 mm0 mm 22.9 °C 22.5 °C 21.5 °C 21.2 °C 60000 m 1022.3 hPa

Données via Météo-France

Relevés météo à Avord

Cette page rassemble les observations de la station de Avord : température, humidité, vent, précipitations et pression atmosphérique. Les graphiques facilitent le suivi de la journée, tandis que le tableau donne accès aux mesures horaires et infra-horaires disponibles.

Pour replacer ces mesures dans leur contexte, consultez la climatologie de Avord ainsi que ses normales et records. Retrouvez aussi la carte des observations météo en temps réel.